Time;durP1;ratioP1;P1;durP2;ratioP2;P2;SDS_P1;SDS_P2;PMS_P1;PMS_P2;Temp;Humidity;BMP_temperature;BMP_pressure;BME280_temperature;BME280_humidity;BME280_pressure;Samples;Min_cycle;Max_cycle;Signal;HPM_P1;HPM_P2
2021/06/07 00:02:11;;;;;;;7.97;5.07;;;;;;;21.70;56.82;100040.72;4379497;32;34626;-87
2021/06/07 00:04:39;;;;;;;5.07;4.68;;;;;;;21.68;56.96;100035.44;4407732;32;33591;-85
2021/06/07 00:07:08;;;;;;;8.85;4.95;;;;;;;21.95;54.89;100025.97;4407683;32;33848;-85
2021/06/07 00:09:37;;;;;;;7.07;5.05;;;;;;;21.72;55.88;100041.41;4389258;32;36617;-85
2021/06/07 00:12:10;;;;;;;5.80;5.30;;;;;;;21.58;56.30;100034.53;4388010;32;33687;-86
2021/06/07 00:14:38;;;;;;;6.75;4.40;;;;;;;21.52;56.53;100036.91;4402087;32;33378;-86
2021/06/07 00:17:06;;;;;;;5.95;5.35;;;;;;;21.52;56.56;100040.44;4393565;32;34561;-86
2021/06/07 00:19:36;;;;;;;9.38;5.18;;;;;;;21.56;56.51;100041.03;4396768;32;33566;-86
2021/06/07 00:22:05;;;;;;;4.75;4.35;;;;;;;21.51;56.88;100043.25;4391744;32;34717;-86
2021/06/07 00:24:33;;;;;;;5.90;4.60;;;;;;;21.57;56.26;100043.59;4395038;32;33335;-86
2021/06/07 00:27:01;;;;;;;7.45;4.62;;;;;;;21.66;55.22;100042.81;4394086;32;34868;-85
2021/06/07 00:29:29;;;;;;;5.35;4.78;;;;;;;21.71;54.55;100051.31;4407247;32;34151;-85
2021/06/07 00:32:05;;;;;;;5.03;4.53;;;;;;;21.50;55.63;100042.41;4403733;32;34881;-85
2021/06/07 00:34:32;;;;;;;4.85;4.45;;;;;;;21.49;55.79;100040.69;4389051;32;34732;-84
2021/06/07 00:37:01;;;;;;;5.45;4.97;;;;;;;21.43;56.22;100044.75;4391756;32;34966;-84
2021/06/07 00:39:28;;;;;;;6.05;5.15;;;;;;;21.43;56.62;100042.09;4395646;32;33766;-85
2021/06/07 00:41:56;;;;;;;8.90;4.95;;;;;;;21.62;56.21;100044.03;4406689;32;33516;-85
2021/06/07 00:44:24;;;;;;;5.62;5.12;;;;;;;21.55;56.19;100042.84;4400261;32;33649;-84
2021/06/07 00:46:51;;;;;;;5.53;5.03;;;;;;;21.47;56.79;100043.53;4400891;32;34155;-85
2021/06/07 00:49:19;;;;;;;5.62;5.12;;;;;;;21.53;56.70;100039.47;4400527;32;33592;-85
2021/06/07 00:51:47;;;;;;;5.53;5.03;;;;;;;21.47;57.15;100031.94;4400558;32;33561;-85
2021/06/07 00:54:16;;;;;;;5.40;4.95;;;;;;;21.46;57.32;100038.28;4389244;32;33605;-85
2021/06/07 00:56:44;;;;;;;5.45;5.00;;;;;;;21.43;57.41;100035.84;4405061;32;33323;-87
2021/06/07 00:59:13;;;;;;;5.57;5.07;;;;;;;21.46;57.22;100032.91;4416757;32;33774;-85
2021/06/07 01:01:41;;;;;;;7.30;5.40;;;;;;;21.43;57.27;100033.16;4381121;32;34930;-85
2021/06/07 01:04:09;;;;;;;5.35;4.85;;;;;;;21.40;57.36;100036.97;4381531;32;34368;-84
2021/06/07 01:06:37;;;;;;;7.43;5.43;;;;;;;21.45;57.03;100033.87;4408105;32;32611;-84
2021/06/07 01:09:06;;;;;;;5.55;5.10;;;;;;;21.47;56.78;100037.31;4392643;32;33772;-84
2021/06/07 01:11:34;;;;;;;5.50;5.00;;;;;;;21.36;57.15;100035.50;4388978;32;35204;-84
2021/06/07 01:14:04;;;;;;;5.65;5.18;;;;;;;21.32;57.46;100027.88;4398829;32;35967;-85
2021/06/07 01:16:32;;;;;;;5.55;4.82;;;;;;;21.26;57.59;100033.72;4406082;32;32529;-85
2021/06/07 01:19:00;;;;;;;7.25;5.47;;;;;;;21.30;57.29;100035.16;4400016;32;35327;-85
2021/06/07 01:21:28;;;;;;;5.90;5.30;;;;;;;21.16;57.31;100034.47;4392558;32;33713;-85
2021/06/07 01:23:57;;;;;;;5.12;4.62;;;;;;;21.13;57.25;100037.44;4414946;32;33467;-85
2021/06/07 01:26:25;;;;;;;7.15;5.15;;;;;;;20.96;57.93;100029.94;4390713;32;34964;-84
2021/06/07 01:28:55;;;;;;;6.30;5.55;;;;;;;20.96;57.66;100032.63;4382304;32;35311;-85
2021/06/07 01:31:23;;;;;;;5.62;5.22;;;;;;;20.92;57.68;100032.00;4374699;32;34775;-85
2021/06/07 01:33:52;;;;;;;5.82;5.22;;;;;;;20.84;57.71;100031.81;4403282;32;34165;-85
2021/06/07 01:36:21;;;;;;;8.07;5.55;;;;;;;20.85;57.84;100035.34;4405151;32;33816;-85
2021/06/07 01:38:50;;;;;;;5.60;5.03;;;;;;;20.89;57.58;100031.44;4403088;32;33353;-85
2021/06/07 01:41:18;;;;;;;5.65;4.90;;;;;;;20.69;57.95;100044.63;4397855;32;33812;-86
2021/06/07 01:43:46;;;;;;;6.53;5.93;;;;;;;20.55;58.03;100039.56;4405582;32;34833;-86
2021/06/07 01:46:15;;;;;;;5.95;5.35;;;;;;;20.57;57.98;100042.97;4398796;32;34180;-85
2021/06/07 01:48:43;;;;;;;6.43;5.87;;;;;;;20.30;58.83;100037.13;4394314;32;34265;-85
2021/06/07 01:51:11;;;;;;;7.30;6.53;;;;;;;20.06;59.44;100038.09;4394430;32;34968;-84
2021/06/07 01:53:40;;;;;;;6.22;5.72;;;;;;;20.27;58.72;100040.03;4406275;32;33661;-84
2021/06/07 01:56:08;;;;;;;6.55;6.05;;;;;;;20.23;58.91;100039.47;4407322;32;32899;-84
2021/06/07 01:58:39;;;;;;;6.85;6.00;;;;;;;20.30;58.82;100039.81;4399306;32;33699;-85
2021/06/07 02:01:08;;;;;;;6.15;5.45;;;;;;;20.23;59.51;100044.81;4388167;32;32849;-84
2021/06/07 02:03:37;;;;;;;6.93;5.45;;;;;;;20.31;59.41;100036.16;4407350;32;33369;-85
2021/06/07 02:06:09;;;;;;;6.18;5.57;;;;;;;20.28;59.96;100039.09;4388112;32;33090;-84
2021/06/07 02:08:38;;;;;;;6.30;5.70;;;;;;;20.38;59.64;100034.69;4407282;32;34020;-85
2021/06/07 02:11:12;;;;;;;6.65;6.10;;;;;;;20.27;60.02;100040.94;4405947;32;33487;-84
2021/06/07 02:13:41;;;;;;;6.43;5.82;;;;;;;20.28;59.96;100033.72;4396481;32;35535;-86
2021/06/07 02:16:16;;;;;;;6.45;5.93;;;;;;;20.47;59.41;100047.37;4409312;32;33126;-86
2021/06/07 02:18:45;;;;;;;7.05;5.75;;;;;;;20.25;60.16;100037.50;4409165;32;33434;-86
2021/06/07 02:21:17;;;;;;;8.20;6.72;;;;;;;20.22;60.17;100045.78;4401165;32;35437;-86
2021/06/07 02:23:45;;;;;;;7.45;6.75;;;;;;;19.98;60.87;100045.03;4397631;32;35089;-87
2021/06/07 02:26:13;;;;;;;8.02;6.22;;;;;;;20.03;60.67;100034.81;4396693;32;33925;-86
2021/06/07 02:28:53;;;;;;;7.28;6.57;;;;;;;20.09;60.53;100037.88;4392123;32;34291;-86
2021/06/07 02:31:22;;;;;;;8.60;7.60;;;;;;;20.20;60.25;100039.69;4383917;32;34476;-85
2021/06/07 02:33:51;;;;;;;6.80;6.20;;;;;;;20.16;60.47;100041.75;4392286;32;34397;-85
2021/06/07 02:36:20;;;;;;;6.85;6.15;;;;;;;20.28;60.01;100039.94;4395216;32;33268;-85
2021/06/07 02:38:48;;;;;;;6.65;5.87;;;;;;;20.33;59.94;100044.94;4404060;32;34636;-85
2021/06/07 02:41:18;;;;;;;6.53;5.95;;;;;;;20.48;59.68;100049.09;4397245;32;33334;-85
2021/06/07 02:43:47;;;;;;;8.18;6.55;;;;;;;20.04;61.21;100050.78;4393782;32;35411;-84
2021/06/07 02:46:17;;;;;;;11.70;6.87;;;;;;;19.81;61.83;100051.75;4395202;32;32733;-84
2021/06/07 02:48:45;;;;;;;7.57;6.78;;;;;;;19.98;61.23;100051.25;4409465;32;33602;-84
2021/06/07 02:51:13;;;;;;;8.40;6.97;;;;;;;19.89;61.58;100050.19;4391650;32;35629;-84
2021/06/07 02:53:41;;;;;;;7.25;6.53;;;;;;;19.80;61.85;100045.53;4389245;32;35456;-84
2021/06/07 02:56:09;;;;;;;9.13;6.90;;;;;;;19.91;61.44;100050.03;4395679;32;35065;-84
2021/06/07 02:58:37;;;;;;;6.62;5.93;;;;;;;19.88;61.54;100052.97;4398143;32;33870;-84
2021/06/07 03:01:07;;;;;;;8.07;7.28;;;;;;;19.96;61.24;100047.84;4388816;32;35085;-84
2021/06/07 03:03:36;;;;;;;7.70;7.05;;;;;;;19.90;61.43;100051.03;4394734;32;34083;-84
2021/06/07 03:06:05;;;;;;;11.55;7.60;;;;;;;19.84;61.90;100054.16;4392069;32;33464;-85
2021/06/07 03:08:34;;;;;;;12.57;6.97;;;;;;;20.04;61.32;100055.31;4395757;32;34705;-85
2021/06/07 03:11:05;;;;;;;10.68;7.40;;;;;;;20.06;61.59;100064.06;4408675;32;34028;-85
2021/06/07 03:13:34;;;;;;;8.27;6.87;;;;;;;19.89;62.27;100062.69;4394904;32;33355;-86
2021/06/07 03:16:02;;;;;;;11.80;6.43;;;;;;;19.75;62.71;100060.25;4383067;32;34054;-86
2021/06/07 03:18:30;;;;;;;8.80;6.93;;;;;;;19.95;62.18;100063.09;4407963;32;33540;-86
2021/06/07 03:20:58;;;;;;;7.75;7.00;;;;;;;19.90;62.43;100067.09;4389653;32;33807;-86
2021/06/07 03:23:30;;;;;;;8.85;7.03;;;;;;;19.93;62.17;100064.16;4385582;32;34478;-86
2021/06/07 03:25:58;;;;;;;;;;;;;;;20.08;62.06;100062.97;4403984;32;33023;-84
2021/06/07 03:28:26;;;;;;;7.12;6.47;;;;;;;20.29;61.51;100056.88;4389863;32;34009;-85
2021/06/07 03:30:55;;;;;;;9.10;7.37;;;;;;;20.27;61.70;100069.53;4394306;32;34540;-85
2021/06/07 03:33:24;;;;;;;9.00;7.05;;;;;;;20.10;61.92;100073.56;4391942;32;34513;-86
2021/06/07 03:35:53;;;;;;;11.05;6.68;;;;;;;20.23;61.42;100070.78;4392022;32;33043;-84
2021/06/07 03:38:22;;;;;;;8.05;6.60;;;;;;;20.25;61.36;100068.81;4406458;32;35141;-84
2021/06/07 03:40:52;;;;;;;7.20;6.60;;;;;;;19.95;62.34;100072.97;4390132;32;33286;-83
2021/06/07 03:43:25;;;;;;;7.62;6.93;;;;;;;19.93;62.67;100077.56;4401507;32;34941;-86
2021/06/07 03:45:53;;;;;;;7.22;6.53;;;;;;;19.80;63.42;100074.16;4392338;32;34739;-86
2021/06/07 03:48:21;;;;;;;8.90;7.65;;;;;;;20.11;62.62;100073.44;4402785;32;33504;-86
2021/06/07 03:50:50;;;;;;;12.00;7.00;;;;;;;19.94;63.00;100072.09;4406137;32;34269;-86
2021/06/07 03:53:18;;;;;;;11.15;7.28;;;;;;;19.92;63.31;100063.31;4386151;32;32451;-86
2021/06/07 03:55:46;;;;;;;9.32;7.30;;;;;;;19.77;63.83;100061.00;4405882;32;35062;-85
2021/06/07 03:58:14;;;;;;;9.68;6.95;;;;;;;19.97;63.11;100065.62;4417854;32;33514;-84
2021/06/07 04:00:42;;;;;;;7.72;7.03;;;;;;;20.11;62.67;100067.22;4402237;32;34705;-84
2021/06/07 04:03:11;;;;;;;7.65;6.82;;;;;;;20.23;62.13;100070.78;4400346;32;32769;-84
2021/06/07 04:05:40;;;;;;;7.82;6.60;;;;;;;19.99;63.24;100058.34;4393399;32;33639;-83
2021/06/07 04:08:10;;;;;;;8.93;7.15;;;;;;;20.35;61.69;100064.41;4412976;32;32965;-83
2021/06/07 04:10:39;;;;;;;9.00;7.10;;;;;;;20.24;62.30;100061.75;4390072;32;33822;-83
2021/06/07 04:13:07;;;;;;;8.05;7.28;;;;;;;20.26;62.55;100055.28;4392572;32;34405;-84
2021/06/07 04:15:35;;;;;;;8.18;7.40;;;;;;;20.21;63.14;100062.84;4389356;32;34636;-84
2021/06/07 04:18:03;;;;;;;12.48;7.22;;;;;;;20.43;62.56;100062.00;4419254;32;32060;-85
2021/06/07 04:20:32;;;;;;;8.48;7.62;;;;;;;20.48;62.62;100059.81;4402389;32;31993;-85
2021/06/07 04:23:00;;;;;;;13.35;7.90;;;;;;;20.42;63.04;100060.28;4400140;32;32987;-86
2021/06/07 04:25:30;;;;;;;13.85;7.50;;;;;;;20.50;62.41;100057.84;4393308;32;35070;-86
2021/06/07 04:27:58;;;;;;;8.05;6.78;;;;;;;20.55;62.58;100052.97;4402407;32;34183;-87
2021/06/07 04:30:29;;;;;;;11.20;7.43;;;;;;;20.64;62.37;100054.91;4406501;32;33667;-86
2021/06/07 04:33:15;;;;;;;7.10;6.30;;;;;;;20.65;62.54;100053.06;4401880;32;34112;-85
2021/06/07 04:35:42;;;;;;;7.47;6.78;;;;;;;20.48;63.01;100050.91;4397845;32;33972;-86
2021/06/07 04:38:10;;;;;;;5.15;4.65;;;;;;;20.57;63.05;100052.84;4389693;32;34641;-86
2021/06/07 04:40:43;;;;;;;4.90;4.33;;;;;;;20.60;60.53;100056.12;4390567;32;34708;-86
2021/06/07 04:43:13;;;;;;;6.30;4.25;;;;;;;20.56;60.06;100057.37;4402633;32;35266;-86
2021/06/07 04:45:42;;;;;;;5.53;4.47;;;;;;;20.64;59.19;100057.59;4389416;32;33826;-86
2021/06/07 04:48:11;;;;;;;8.25;4.93;;;;;;;20.80;58.82;100059.03;4379307;32;35006;-85
2021/06/07 04:50:39;;;;;;;7.00;3.75;;;;;;;21.09;58.14;100049.41;4415990;32;32512;-86
2021/06/07 04:53:09;;;;;;;8.25;6.15;;;;;;;21.40;57.07;100058.44;4401304;32;33214;-87
2021/06/07 04:55:45;;;;;;;8.25;6.50;;;;;;;21.70;58.86;100057.69;4400765;32;35120;-85
2021/06/07 04:58:27;;;;;;;13.40;6.78;;;;;;;21.63;59.18;100067.25;4411622;32;33963;-86
2021/06/07 05:00:57;;;;;;;9.07;6.50;;;;;;;21.54;59.25;100065.34;4402648;32;33326;-86
2021/06/07 05:03:26;;;;;;;7.35;6.12;;;;;;;21.36;59.85;100067.75;4402979;32;33173;-87
2021/06/07 05:05:55;;;;;;;8.32;5.80;;;;;;;21.32;60.06;100060.94;4401765;32;32858;-87
2021/06/07 05:08:25;;;;;;;7.95;6.43;;;;;;;21.43;59.03;100071.63;4412777;32;34059;-88
2021/06/07 05:10:53;;;;;;;9.38;6.45;;;;;;;21.34;59.52;100075.09;4398328;32;33879;-87
2021/06/07 05:13:21;;;;;;;7.62;6.70;;;;;;;21.40;59.57;100073.72;4383805;32;33119;-87
2021/06/07 05:15:50;;;;;;;8.27;6.55;;;;;;;21.42;59.59;100071.78;4401869;32;33671;-88
2021/06/07 05:18:18;;;;;;;6.78;5.62;;;;;;;21.45;60.02;100071.50;4414707;32;33171;-88
2021/06/07 05:20:46;;;;;;;8.57;6.20;;;;;;;21.84;58.50;100069.06;4405647;32;34743;-87
2021/06/07 05:23:15;;;;;;;7.75;6.45;;;;;;;21.82;58.93;100074.56;4393563;32;33597;-87
2021/06/07 05:25:44;;;;;;;12.93;7.05;;;;;;;22.06;59.32;100073.44;4390656;32;35114;-87
2021/06/07 05:28:13;;;;;;;9.93;6.82;;;;;;;22.10;58.86;100070.34;4402051;32;33438;-87
2021/06/07 05:30:43;;;;;;;10.38;5.97;;;;;;;21.92;59.90;100074.63;4392633;32;34103;-87
2021/06/07 05:33:11;;;;;;;13.15;6.55;;;;;;;22.22;59.56;100065.78;4403964;32;33840;-84
2021/06/07 05:35:42;;;;;;;9.85;6.37;;;;;;;22.32;59.08;100077.44;4389807;32;31893;-88
2021/06/07 05:38:11;;;;;;;8.82;6.32;;;;;;;22.38;58.47;100076.03;4398456;32;34156;-88
2021/06/07 05:40:39;;;;;;;6.95;6.22;;;;;;;22.56;58.04;100074.37;4400696;32;34157;-87
2021/06/07 05:43:07;;;;;;;8.98;5.72;;;;;;;22.59;57.63;100078.63;4399819;32;32683;-87
2021/06/07 05:45:36;;;;;;;6.45;5.85;;;;;;;22.77;57.60;100076.12;4387401;32;34001;-86
2021/06/07 05:48:05;;;;;;;6.40;5.80;;;;;;;22.77;58.49;100078.81;4406635;32;33322;-86
2021/06/07 05:50:34;;;;;;;9.07;5.72;;;;;;;22.66;58.26;100083.34;4405282;32;33388;-86
2021/06/07 05:53:03;;;;;;;9.77;6.07;;;;;;;22.47;59.28;100086.81;4392084;32;34813;-87
2021/06/07 05:55:35;;;;;;;9.27;5.57;;;;;;;22.33;60.03;100089.03;4407204;32;33223;-87
2021/06/07 05:58:08;;;;;;;10.30;5.68;;;;;;;22.43;58.66;100084.53;4417141;32;33359;-87
2021/06/07 06:00:38;;;;;;;6.47;5.22;;;;;;;22.47;58.40;100089.50;4397071;32;33630;-87
2021/06/07 06:03:07;;;;;;;7.28;4.47;;;;;;;22.99;55.16;100084.00;4403897;32;34072;-86
2021/06/07 06:05:36;;;;;;;7.07;5.12;;;;;;;22.98;54.59;100090.41;4391930;32;34078;-87
2021/06/07 06:08:05;;;;;;;7.03;5.30;;;;;;;22.91;55.10;100086.53;4403098;32;34615;-86
2021/06/07 06:10:35;;;;;;;6.37;4.62;;;;;;;22.80;55.60;100092.03;4396584;32;33152;-86
2021/06/07 06:13:03;;;;;;;9.75;4.97;;;;;;;22.75;56.10;100085.22;4397689;32;33948;-86
2021/06/07 06:15:32;;;;;;;15.55;7.00;;;;;;;22.84;55.94;100085.38;4402462;32;33464;-86
2021/06/07 06:18:00;;;;;;;8.82;5.97;;;;;;;23.13;54.97;100088.13;4401695;32;34604;-87
2021/06/07 06:20:30;;;;;;;9.25;5.80;;;;;;;23.22;54.97;100090.00;4397959;32;33443;-87
2021/06/07 06:22:58;;;;;;;10.68;5.32;;;;;;;23.10;55.42;100101.87;4389278;32;34469;-87
2021/06/07 06:25:27;;;;;;;8.23;5.15;;;;;;;22.97;55.51;100099.44;4401964;32;33569;-87
2021/06/07 06:27:57;;;;;;;8.75;4.45;;;;;;;22.99;54.78;100098.31;4399927;32;35222;-87
2021/06/07 06:30:27;;;;;;;9.80;5.12;;;;;;;22.89;55.57;100096.62;4403357;32;34431;-88
2021/06/07 06:32:58;;;;;;;7.37;5.53;;;;;;;22.75;56.26;100101.34;4387736;32;32272;-87
2021/06/07 06:35:27;;;;;;;8.25;5.35;;;;;;;22.68;56.33;100099.34;4381765;32;33668;-87
2021/06/07 06:37:56;;;;;;;6.68;4.70;;;;;;;22.37;56.52;100094.00;4395188;32;34593;-87
2021/06/07 06:40:27;;;;;;;8.30;4.60;;;;;;;22.59;56.20;100095.63;4389892;32;35762;-88
2021/06/07 06:42:56;;;;;;;6.22;5.00;;;;;;;22.96;55.54;100089.66;4390810;32;34531;-87
2021/06/07 06:45:27;;;;;;;5.35;4.25;;;;;;;23.31;53.92;100093.66;4401456;32;32758;-89
2021/06/07 06:47:58;;;;;;;5.28;4.15;;;;;;;23.17;52.38;100094.94;4403110;32;33487;-89
2021/06/07 06:50:32;;;;;;;7.77;4.60;;;;;;;23.43;53.08;100095.22;4379321;32;34381;-89
2021/06/07 06:53:11;;;;;;;4.80;3.75;;;;;;;23.50;53.62;100096.38;4403537;32;34865;-90
2021/06/07 06:55:40;;;;;;;7.45;3.92;;;;;;;23.66;51.66;100104.75;4403915;32;32354;-90
2021/06/07 06:58:09;;;;;;;4.53;3.53;;;;;;;23.65;52.12;100105.75;4388380;32;34414;-88
2021/06/07 07:00:39;;;;;;;7.60;3.97;;;;;;;23.77;51.22;100101.87;4411782;32;33181;-90
2021/06/07 07:03:24;;;;;;;8.60;3.83;;;;;;;23.84;50.17;100093.25;4381251;32;34061;-90
2021/06/07 07:05:55;;;;;;;9.30;4.65;;;;;;;24.28;49.58;100097.94;4380588;32;33741;-90
2021/06/07 07:08:24;;;;;;;6.47;4.70;;;;;;;24.59;47.43;100102.22;4403613;32;33543;-90
2021/06/07 07:10:53;;;;;;;7.10;4.00;;;;;;;24.62;48.95;100107.34;4379226;32;32956;-90
2021/06/07 07:13:21;;;;;;;4.40;4.00;;;;;;;24.65;49.44;100107.03;4381423;32;34277;-91
2021/06/07 07:15:48;;;;;;;6.75;4.05;;;;;;;24.76;47.65;100096.88;4394440;32;33886;-90
2021/06/07 07:18:17;;;;;;;4.12;3.72;;;;;;;24.98;48.16;100100.16;4403653;32;34542;-89
2021/06/07 07:20:45;;;;;;;7.22;4.00;;;;;;;25.22;47.13;100105.84;4403510;32;33515;-89
2021/06/07 07:23:13;;;;;;;6.90;3.70;;;;;;;25.23;46.86;100104.84;4393126;32;33509;-93
2021/06/07 07:26:06;;;;;;;4.62;3.03;;;;;;;25.42;45.35;100101.13;4397839;32;34004;-91
2021/06/07 07:28:51;;;;;;;8.52;3.33;;;;;;;25.33;44.91;100112.03;4381578;32;34348;-92
2021/06/07 07:31:59;;;;;;;4.97;3.87;;;;;;;25.28;46.32;100118.75;4388912;32;34516;-90
2021/06/07 07:34:47;;;;;;;3.65;3.05;;;;;;;25.39;46.06;100097.87;4383757;32;32661;-85
2021/06/07 07:37:16;;;;;;;4.40;2.92;;;;;;;25.29;45.25;100114.19;4392778;32;33280;-85
2021/06/07 07:39:43;;;;;;;6.97;4.03;;;;;;;25.49;45.26;100114.87;4403427;32;33658;-85
2021/06/07 07:42:11;;;;;;;10.00;3.50;;;;;;;25.53;44.45;100105.44;4405043;32;34907;-85
2021/06/07 07:44:39;;;;;;;4.15;2.85;;;;;;;25.79;44.31;100114.50;4404624;32;33737;-85
2021/06/07 07:47:07;;;;;;;3.35;3.00;;;;;;;25.85;43.50;100110.31;4403899;32;33184;-85
2021/06/07 07:49:35;;;;;;;4.93;3.00;;;;;;;26.08;42.97;100110.63;4391865;32;33672;-85
2021/06/07 07:52:05;;;;;;;3.08;2.53;;;;;;;26.12;41.07;100113.88;4402228;32;33674;-84
2021/06/07 07:54:34;;;;;;;6.75;3.65;;;;;;;26.71;39.18;100110.31;4406340;32;33312;-85
2021/06/07 07:57:04;;;;;;;3.85;3.20;;;;;;;26.38;39.31;100119.28;4405374;32;34197;-86
2021/06/07 07:59:33;;;;;;;5.47;3.10;;;;;;;26.72;39.62;100114.72;4411854;32;34689;-85
2021/06/07 08:02:01;;;;;;;4.25;3.42;;;;;;;26.69;37.61;100111.50;4393956;32;34363;-85
2021/06/07 08:04:29;;;;;;;6.03;2.83;;;;;;;26.57;39.24;100112.78;4391140;32;34684;-87
2021/06/07 08:06:57;;;;;;;3.97;3.20;;;;;;;26.37;41.01;100115.72;4405014;32;33417;-85
2021/06/07 08:09:26;;;;;;;6.45;3.35;;;;;;;26.36;41.51;100107.75;4393365;32;34796;-86
2021/06/07 08:11:54;;;;;;;5.82;3.03;;;;;;;26.81;41.44;100097.47;4406296;32;34748;-85
2021/06/07 08:14:21;;;;;;;6.18;3.03;;;;;;;27.39;38.82;100106.59;4379477;32;35528;-85
2021/06/07 08:16:49;;;;;;;5.22;2.95;;;;;;;27.23;38.14;100112.00;4406127;32;34121;-86
2021/06/07 08:19:17;;;;;;;4.80;2.58;;;;;;;27.48;36.60;100112.88;4411334;32;33945;-85
2021/06/07 08:21:46;;;;;;;2.85;2.22;;;;;;;28.00;33.37;100098.97;4404861;32;35636;-85
2021/06/07 08:24:13;;;;;;;4.85;2.70;;;;;;;27.71;34.58;100105.81;4400407;32;33460;-86
2021/06/07 08:26:42;;;;;;;5.07;2.90;;;;;;;27.92;35.42;100107.16;4380607;32;33742;-86
2021/06/07 08:29:09;;;;;;;2.80;2.35;;;;;;;27.77;33.61;100106.97;4392319;32;33733;-86
2021/06/07 08:31:38;;;;;;;3.87;2.55;;;;;;;28.24;34.58;100100.78;4393241;32;34664;-86
2021/06/07 08:34:06;;;;;;;5.10;2.80;;;;;;;28.72;34.41;100107.09;4380928;32;35289;-86
2021/06/07 08:36:34;;;;;;;3.85;2.97;;;;;;;28.22;35.00;100103.69;4405585;32;34661;-85
2021/06/07 08:39:05;;;;;;;7.00;3.17;;;;;;;28.14;33.25;100106.44;4401140;32;33518;-86
2021/06/07 08:41:33;;;;;;;2.70;2.50;;;;;;;28.81;34.02;100101.44;4393253;32;34414;-86
2021/06/07 08:44:21;;;;;;;4.47;2.70;;;;;;;29.03;33.58;100107.16;4406235;32;33340;-86
2021/06/07 08:46:49;;;;;;;4.35;2.33;;;;;;;28.90;33.86;100096.81;4378003;32;34704;-86
2021/06/07 08:49:17;;;;;;;2.30;2.10;;;;;;;28.80;32.85;100107.91;4418787;32;33948;-86
2021/06/07 08:51:44;;;;;;;5.35;2.87;;;;;;;29.44;32.07;100104.19;4399138;32;33583;-86
2021/06/07 08:54:12;;;;;;;3.62;2.50;;;;;;;28.68;32.72;100103.91;4391571;32;34664;-86
2021/06/07 08:56:42;;;;;;;3.65;2.53;;;;;;;29.48;33.41;100097.31;4404560;32;34096;-86
2021/06/07 08:59:14;;;;;;;4.57;2.70;;;;;;;29.91;31.74;100092.22;4413516;32;35117;-86
2021/06/07 09:01:42;;;;;;;4.05;2.15;;;;;;;29.38;31.99;100092.13;4406714;32;34954;-86
2021/06/07 09:04:16;;;;;;;4.45;2.37;;;;;;;29.53;31.10;100084.00;4403835;32;33176;-86
2021/06/07 09:06:46;;;;;;;4.65;2.72;;;;;;;29.99;32.04;100086.69;4403272;32;32934;-87
2021/06/07 09:09:17;;;;;;;3.10;2.62;;;;;;;30.15;31.92;100081.13;4393737;32;34274;-87
2021/06/07 09:12:08;;;;;;;3.15;2.58;;;;;;;30.18;31.33;100080.72;4396025;32;34440;-93
2021/06/07 09:14:53;;;;;;;4.53;2.45;;;;;;;29.86;30.70;100081.88;4382628;32;34922;-93
2021/06/07 09:17:32;;;;;;;5.18;2.65;;;;;;;29.65;31.44;100077.16;4400753;32;34692;-92
2021/06/07 09:20:18;;;;;;;5.87;2.97;;;;;;;29.80;31.25;100080.75;4363129;32;34565;-92
2021/06/07 09:23:05;;;;;;;6.55;3.15;;;;;;;30.46;31.51;100074.63;4373364;32;33164;-88
2021/06/07 09:25:44;;;;;;;4.68;2.70;;;;;;;29.54;32.43;100083.00;4363122;32;31045;-86
2021/06/07 09:28:23;;;;;;;4.90;2.87;;;;;;;29.52;30.19;100077.72;4346755;32;34914;-86
2021/06/07 09:30:59;;;;;;;2.90;2.33;;;;;;;30.07;29.85;100083.88;4358245;32;33413;-86
2021/06/07 09:33:38;;;;;;;6.80;2.70;;;;;;;30.28;31.04;100081.28;4361566;32;34700;-86
2021/06/07 09:36:20;;;;;;;4.40;2.72;;;;;;;30.15;30.20;100069.34;4373132;32;33189;-86
2021/06/07 09:39:06;;;;;;;2.60;2.37;;;;;;;29.79;31.68;100065.44;4364426;32;32845;-86
2021/06/07 09:42:02;;;;;;;4.82;2.95;;;;;;;30.03;30.56;100068.94;4372259;32;33645;-86
2021/06/07 09:44:44;;;;;;;5.85;3.03;;;;;;;29.98;30.75;100069.50;4361847;32;33698;-86
2021/06/07 09:47:24;;;;;;;6.93;2.67;;;;;;;30.35;32.95;100068.63;4385879;32;33961;-86
2021/06/07 09:50:06;;;;;;;2.47;2.28;;;;;;;30.63;29.50;100062.47;4375605;32;35380;-86
2021/06/07 09:52:53;;;;;;;4.70;2.78;;;;;;;30.48;29.29;100069.81;4348564;32;35551;-86
2021/06/07 09:55:22;;;;;;;6.75;2.97;;;;;;;30.38;29.71;100066.53;4373043;32;34776;-85
2021/06/07 09:58:01;;;;;;;4.03;2.37;;;;;;;30.80;29.23;100063.97;4374068;32;33679;-86
2021/06/07 10:00:49;;;;;;;5.40;2.95;;;;;;;30.06;29.36;100046.81;4363505;32;34434;-86
2021/06/07 10:03:24;;;;;;;3.85;2.87;;;;;;;29.45;30.54;100052.28;4372987;32;33783;-85
2021/06/07 10:05:58;;;;;;;3.72;2.70;;;;;;;28.98;31.76;100066.06;4378124;32;33432;-86
2021/06/07 10:08:40;;;;;;;3.20;2.70;;;;;;;28.79;32.68;100068.19;4376831;32;33807;-87
2021/06/07 10:11:39;;;;;;;5.60;3.22;;;;;;;28.56;34.05;100065.41;4352071;32;33726;-87
2021/06/07 10:14:19;;;;;;;2.60;2.40;;;;;;;28.81;34.99;100060.69;4360421;32;34092;-87
2021/06/07 10:17:00;;;;;;;5.20;2.47;;;;;;;28.73;32.35;100059.91;4367145;32;34310;-87
2021/06/07 10:19:34;;;;;;;6.10;2.93;;;;;;;28.62;31.74;100055.69;4363439;32;34722;-87
2021/06/07 10:22:04;;;;;;;6.07;2.42;;;;;;;28.89;31.24;100050.81;4381639;32;34157;-88
2021/06/07 10:24:32;;;;;;;3.65;2.37;;;;;;;28.97;32.32;100065.22;4365558;32;34691;-87
2021/06/07 10:27:00;;;;;;;2.95;2.17;;;;;;;29.09;31.82;100055.62;4377270;32;35257;-87
2021/06/07 10:29:35;;;;;;;4.18;2.65;;;;;;;29.33;32.36;100056.47;4384210;32;34296;-87
2021/06/07 10:32:27;;;;;;;7.82;2.70;;;;;;;29.03;34.25;100059.06;4356515;32;33791;-88
2021/06/07 10:35:02;;;;;;;4.87;2.30;;;;;;;29.03;33.69;100055.50;4384187;32;34380;-87
2021/06/07 10:37:32;;;;;;;3.87;2.42;;;;;;;29.22;33.16;100054.19;4380513;32;34831;-87
2021/06/07 10:40:18;;;;;;;7.85;2.83;;;;;;;29.10;32.36;100056.47;4382648;32;33666;-87
2021/06/07 10:42:54;;;;;;;4.00;2.85;;;;;;;28.89;33.71;100062.53;4371690;32;35734;-88
2021/06/07 10:45:24;;;;;;;8.20;2.67;;;;;;;28.92;34.64;100058.63;4377099;32;33465;-86
2021/06/07 10:47:52;;;;;;;3.87;2.47;;;;;;;28.63;34.52;100061.97;4367436;32;34957;-86
2021/06/07 10:50:26;;;;;;;3.40;2.70;;;;;;;29.10;34.01;100059.19;4342856;32;35353;-87
2021/06/07 10:52:59;;;;;;;3.20;2.78;;;;;;;29.16;32.47;100052.19;4337695;32;32981;-86
2021/06/07 10:55:34;;;;;;;4.37;2.92;;;;;;;29.19;31.58;100049.94;4351916;32;32788;-87
2021/06/07 10:58:05;;;;;;;3.20;2.90;;;;;;;28.86;34.63;100051.16;4340247;32;33432;-87
2021/06/07 11:00:41;;;;;;;3.20;2.78;;;;;;;29.20;33.14;100048.94;4393410;32;32289;-87
2021/06/07 11:03:16;;;;;;;5.32;3.10;;;;;;;29.37;33.39;100037.91;4390876;32;32268;-86
2021/06/07 11:05:45;;;;;;;4.50;2.95;;;;;;;29.81;31.25;100029.88;4393191;32;33524;-86
2021/06/07 11:08:18;;;;;;;2.70;2.33;;;;;;;30.52;29.47;100024.81;4381081;32;34421;-87
2021/06/07 11:10:56;;;;;;;3.45;2.78;;;;;;;30.77;29.35;100026.19;4388431;32;33580;-86
2021/06/07 11:13:24;;;;;;;4.03;2.85;;;;;;;30.66;28.91;100023.09;4368687;32;33636;-86
2021/06/07 11:16:00;;;;;;;2.70;2.30;;;;;;;30.83;34.86;100019.13;4379001;32;33460;-88
2021/06/07 11:18:31;;;;;;;8.93;3.17;;;;;;;30.76;32.44;100018.19;4378613;32;35054;-88
2021/06/07 11:20:59;;;;;;;;;;;;;;;30.63;29.22;100007.97;4368933;32;34236;-86
2021/06/07 11:23:34;;;;;;;4.93;2.47;;;;;;;31.07;30.24;100016.03;4382224;32;33829;-86
2021/06/07 11:26:03;;;;;;;3.65;3.33;;;;;;;31.44;27.50;100013.25;4380025;32;34711;-86
2021/06/07 11:28:41;;;;;;;6.78;3.28;;;;;;;31.08;29.20;100005.94;4367944;32;33754;-86
2021/06/07 11:31:15;;;;;;;4.05;2.50;;;;;;;30.67;28.41;100009.28;4367818;32;34665;-86
2021/06/07 11:33:56;;;;;;;3.28;2.97;;;;;;;31.25;29.34;100012.84;4370782;32;34495;-86
2021/06/07 11:36:49;;;;;;;3.15;2.67;;;;;;;30.76;30.99;100005.41;4368972;32;30852;-86
2021/06/07 11:39:41;;;;;;;4.45;2.55;;;;;;;30.49;30.56;100012.44;4381443;32;33575;-87
2021/06/07 11:42:15;;;;;;;3.42;3.17;;;;;;;30.76;29.66;100021.75;4375802;32;32336;-86
2021/06/07 11:45:00;;;;;;;3.17;2.40;;;;;;;30.69;30.28;100012.66;4370235;32;33140;-86